Impacts METAR Board INFO
IDs:

KSFO - San Francisco Intl, CA, US

Updated at: 0809 UTC 17 Dec 2017
Potential Impact None Slight Moderate High
Time16/20Z 16/21Z 16/22Z 16/23Z 17/00Z 17/01Z 17/02Z 17/03Z 17/04Z 17/05Z 17/06Z 17/07Z 17/08Z
VIS10 10 10 10 10 10 10 10 10 10 10 10 10
CIG-- -- -- -- -- -- -- -- -- -- -- -- --
CoverSCTSCTSCTFEWFEWSCTFEWCLRCLRSCTSCTFEWSCT
FltCatVFRVFRVFRVFRVFRVFRVFRVFRVFRVFRVFRVFRVFR
WX--------------------------
WDir310320340340350340340340350350340290360
WSpd15 19 20 22 23 18 10 16 14 18 14 7 12
WGst22 -- 28 29 -- -- -- -- -- 26 23 -- --
Raw hourly METARs
KSFO 161956Z 31015G22KT 10SM SCT200 17/M02 A2996 RMK AO2 PK WND 33033/1921 SLP146 T01721017
KSFO 162056Z 32019KT 10SM FEW170 SCT200 17/M02 A2994 RMK AO2 PK WND 33032/2023 SLP139 T01721022 58009
KSFO 162156Z 34020G28KT 10SM FEW170 SCT200 17/M04 A2994 RMK AO2 PK WND 34035/2111 SLP137 T01721039
KSFO 162256Z 34022G29KT 10SM FEW200 17/M05 A2992 RMK AO2 PK WND 33029/2253 SLP133 T01721050
KSFO 162356Z 35023KT 10SM FEW200 17/M05 A2994 RMK AO2 PK WND 35029/2321 SLP137 T01721050 10178 20150 55003
KSFO 170056Z 34018KT 10SM SCT200 16/M05 A2994 RMK AO2 PK WND 34026/0011 SLP137 T01611050
KSFO 170156Z 34010KT 10SM FEW200 15/M03 A2994 RMK AO2 PK WND 34026/0101 SLP140 T01501028
KSFO 170256Z 34016KT 10SM CLR 15/M04 A2995 RMK AO2 SLP143 T01501039 53006
KSFO 170356Z 35014KT 10SM CLR 15/M02 A2995 RMK AO2 SLP142 T01501022
KSFO 170456Z 35018G26KT 10SM SCT180 17/M03 A2995 RMK AO2 PK WND 34026/0447 SLP143 T01671028
KSFO 170556Z 34014G23KT 10SM SCT180 14/M02 A2997 RMK AO2 PK WND 34026/0458 SLP149 T01441017 10172 20144 53006 $
KSFO 170656Z 29007KT 10SM FEW180 14/M06 A2998 RMK AO2 SLP152 T01391061
KSFO 170756Z 36012KT 10SM SCT200 14/M01 A2997 RMK AO2 SLP150 T01391011 401780094